sensor_id;sensor_type;location;lat;lon;timestamp;pressure;altitude;pressure_sealevel;temperature;humidity
75013;BME280;63567;49.956;20.130;2022-12-29T00:01:31;97109.88;;;3.03;55.60
75013;BME280;63567;49.956;20.130;2022-12-29T00:03:56;97110.56;;;3.05;55.59
75013;BME280;63567;49.956;20.130;2022-12-29T00:06:22;97112.06;;;3.07;55.51
75013;BME280;63567;49.956;20.130;2022-12-29T00:08:47;97110.81;;;3.12;55.61
75013;BME280;63567;49.956;20.130;2022-12-29T00:11:23;97118.63;;;3.12;55.03
75013;BME280;63567;49.956;20.130;2022-12-29T00:13:49;97122.47;;;3.17;55.57
75013;BME280;63567;49.956;20.130;2022-12-29T00:16:34;97126.28;;;3.23;55.02
75013;BME280;63567;49.956;20.130;2022-12-29T00:19:00;97127.94;;;3.24;55.46
75013;BME280;63567;49.956;20.130;2022-12-29T00:21:26;97112.88;;;3.27;55.62
75013;BME280;63567;49.956;20.130;2022-12-29T00:24:18;97131.59;;;3.31;55.08
75013;BME280;63567;49.956;20.130;2022-12-29T00:26:50;97129.00;;;3.31;55.51
75013;BME280;63567;49.956;20.130;2022-12-29T00:29:37;97126.69;;;3.28;55.12
75013;BME280;63567;49.956;20.130;2022-12-29T00:32:21;97131.09;;;3.27;55.08
75013;BME280;63567;49.956;20.130;2022-12-29T00:35:08;97125.88;;;3.27;55.18
75013;BME280;63567;49.956;20.130;2022-12-29T00:37:36;97123.94;;;3.29;55.41
75013;BME280;63567;49.956;20.130;2022-12-29T00:40:21;97115.84;;;3.33;54.92
75013;BME280;63567;49.956;20.130;2022-12-29T00:43:05;97114.06;;;3.33;55.68
75013;BME280;63567;49.956;20.130;2022-12-29T00:45:49;97119.13;;;3.35;55.60
75013;BME280;63567;49.956;20.130;2022-12-29T00:48:15;97122.44;;;3.37;55.22
75013;BME280;63567;49.956;20.130;2022-12-29T00:50:40;97122.44;;;3.37;55.40
75013;BME280;63567;49.956;20.130;2022-12-29T00:53:05;97119.00;;;3.36;56.13
75013;BME280;63567;49.956;20.130;2022-12-29T00:55:31;97127.34;;;3.40;55.34
75013;BME280;63567;49.956;20.130;2022-12-29T00:57:56;97129.00;;;3.41;55.30
75013;BME280;63567;49.956;20.130;2022-12-29T01:00:22;97136.50;;;3.44;55.56
75013;BME280;63567;49.956;20.130;2022-12-29T01:02:47;97128.41;;;3.47;55.21
75013;BME280;63567;49.956;20.130;2022-12-29T01:05:12;97135.81;;;3.52;55.69
75013;BME280;63567;49.956;20.130;2022-12-29T01:07:38;97128.94;;;3.50;55.49
75013;BME280;63567;49.956;20.130;2022-12-29T01:10:03;97133.47;;;3.48;55.79
75013;BME280;63567;49.956;20.130;2022-12-29T01:12:35;97135.56;;;3.45;56.25
75013;BME280;63567;49.956;20.130;2022-12-29T01:15:11;97148.97;;;3.40;56.13
75013;BME280;63567;49.956;20.130;2022-12-29T01:17:37;97145.69;;;3.38;56.19
75013;BME280;63567;49.956;20.130;2022-12-29T01:20:03;97145.84;;;3.37;56.57
75013;BME280;63567;49.956;20.130;2022-12-29T01:22:28;97140.91;;;3.34;57.12
75013;BME280;63567;49.956;20.130;2022-12-29T01:24:54;97143.81;;;3.31;57.19
75013;BME280;63567;49.956;20.130;2022-12-29T01:27:19;97136.13;;;3.29;57.61
75013;BME280;63567;49.956;20.130;2022-12-29T01:29:44;97124.09;;;3.28;56.96
75013;BME280;63567;49.956;20.130;2022-12-29T01:32:10;97123.28;;;3.27;57.84
75013;BME280;63567;49.956;20.130;2022-12-29T01:34:35;97123.09;;;3.29;57.22
75013;BME280;63567;49.956;20.130;2022-12-29T01:37:00;97108.84;;;3.33;56.28
75013;BME280;63567;49.956;20.130;2022-12-29T01:39:26;97099.13;;;3.35;57.31
75013;BME280;63567;49.956;20.130;2022-12-29T01:41:51;97092.97;;;3.36;57.46
75013;BME280;63567;49.956;20.130;2022-12-29T01:44:46;97086.78;;;3.37;56.88
75013;BME280;63567;49.956;20.130;2022-12-29T01:47:17;97091.88;;;3.39;56.75
75013;BME280;63567;49.956;20.130;2022-12-29T01:49:44;97082.25;;;3.39;57.16
75013;BME280;63567;49.956;20.130;2022-12-29T01:52:09;97084.06;;;3.39;57.63
75013;BME280;63567;49.956;20.130;2022-12-29T01:54:44;97073.47;;;3.40;57.38
75013;BME280;63567;49.956;20.130;2022-12-29T01:57:16;97076.91;;;3.41;57.05
75013;BME280;63567;49.956;20.130;2022-12-29T01:59:52;97083.75;;;3.42;57.37
75013;BME280;63567;49.956;20.130;2022-12-29T02:02:19;97082.13;;;3.41;57.91
75013;BME280;63567;49.956;20.130;2022-12-29T02:04:45;97083.88;;;3.40;57.68
75013;BME280;63567;49.956;20.130;2022-12-29T02:07:17;97084.72;;;3.41;58.00
75013;BME280;63567;49.956;20.130;2022-12-29T02:09:43;97082.94;;;3.41;57.15
75013;BME280;63567;49.956;20.130;2022-12-29T02:12:12;97081.00;;;3.43;57.65
75013;BME280;63567;49.956;20.130;2022-12-29T02:14:37;97076.50;;;3.45;57.40
75013;BME280;63567;49.956;20.130;2022-12-29T02:17:10;97076.19;;;3.48;57.42
75013;BME280;63567;49.956;20.130;2022-12-29T02:25:19;97065.03;;;3.66;56.61
75013;BME280;63567;49.956;20.130;2022-12-29T02:36:50;97055.38;;;3.76;56.38
75013;BME280;63567;49.956;20.130;2022-12-29T02:39:38;97048.25;;;3.78;56.46
75013;BME280;63567;49.956;20.130;2022-12-29T02:42:13;97046.00;;;3.83;55.89
75013;BME280;63567;49.956;20.130;2022-12-29T02:45:08;97047.50;;;3.86;56.38
75013;BME280;63567;49.956;20.130;2022-12-29T02:47:46;97043.81;;;3.88;56.19
75013;BME280;63567;49.956;20.130;2022-12-29T02:52:47;97032.78;;;3.95;55.86
75013;BME280;63567;49.956;20.130;2022-12-29T02:55:15;97027.97;;;4.00;55.96
75013;BME280;63567;49.956;20.130;2022-12-29T02:57:40;97030.56;;;4.00;55.25
75013;BME280;63567;49.956;20.130;2022-12-29T03:00:10;97028.78;;;4.00;56.13
75013;BME280;63567;49.956;20.130;2022-12-29T03:03:02;97031.50;;;3.99;56.59
75013;BME280;63567;49.956;20.130;2022-12-29T03:10:48;97014.03;;;4.09;55.53
75013;BME280;63567;49.956;20.130;2022-12-29T03:13:39;97023.19;;;4.13;55.73
75013;BME280;63567;49.956;20.130;2022-12-29T03:16:54;97028.78;;;4.18;55.43
75013;BME280;63567;49.956;20.130;2022-12-29T03:19:36;97018.75;;;4.23;55.18
75013;BME280;63567;49.956;20.130;2022-12-29T03:22:07;97023.50;;;4.28;55.13
75013;BME280;63567;49.956;20.130;2022-12-29T03:24:54;97016.19;;;4.31;55.25
75013;BME280;63567;49.956;20.130;2022-12-29T03:27:35;97013.97;;;4.37;54.69
75013;BME280;63567;49.956;20.130;2022-12-29T03:30:04;97011.38;;;4.37;54.81
75013;BME280;63567;49.956;20.130;2022-12-29T03:32:52;97000.13;;;4.36;54.90
75013;BME280;63567;49.956;20.130;2022-12-29T03:35:25;97003.53;;;4.37;54.89
75013;BME280;63567;49.956;20.130;2022-12-29T03:38:04;97013.44;;;4.33;55.10
75013;BME280;63567;49.956;20.130;2022-12-29T03:40:32;97012.78;;;4.31;55.18
75013;BME280;63567;49.956;20.130;2022-12-29T03:42:59;97010.03;;;4.32;55.13
75013;BME280;63567;49.956;20.130;2022-12-29T03:45:25;97006.16;;;4.37;55.20
75013;BME280;63567;49.956;20.130;2022-12-29T03:47:51;97012.53;;;4.42;55.44
75013;BME280;63567;49.956;20.130;2022-12-29T03:50:18;97015.00;;;4.44;55.27
75013;BME280;63567;49.956;20.130;2022-12-29T03:52:43;97011.94;;;4.48;55.06
75013;BME280;63567;49.956;20.130;2022-12-29T03:55:09;97016.88;;;4.51;55.37
75013;BME280;63567;49.956;20.130;2022-12-29T03:57:34;97007.94;;;4.54;55.04
75013;BME280;63567;49.956;20.130;2022-12-29T04:00:00;97009.41;;;4.57;54.96
75013;BME280;63567;49.956;20.130;2022-12-29T04:02:25;97002.09;;;4.60;55.35
75013;BME280;63567;49.956;20.130;2022-12-29T04:04:50;97003.72;;;4.61;55.54
75013;BME280;63567;49.956;20.130;2022-12-29T04:07:16;97015.81;;;4.62;55.10
75013;BME280;63567;49.956;20.130;2022-12-29T04:09:41;97004.94;;;4.67;55.88
75013;BME280;63567;49.956;20.130;2022-12-29T04:12:06;97023.88;;;4.69;55.15
75013;BME280;63567;49.956;20.130;2022-12-29T04:14:32;97014.09;;;4.71;55.80
75013;BME280;63567;49.956;20.130;2022-12-29T04:16:57;97018.31;;;4.72;55.32
75013;BME280;63567;49.956;20.130;2022-12-29T04:19:22;97023.69;;;4.70;55.69
75013;BME280;63567;49.956;20.130;2022-12-29T04:21:48;97008.03;;;4.70;55.92
75013;BME280;63567;49.956;20.130;2022-12-29T04:24:13;97010.97;;;4.67;56.12
75013;BME280;63567;49.956;20.130;2022-12-29T04:26:38;97014.38;;;4.68;56.14
75013;BME280;63567;49.956;20.130;2022-12-29T04:29:04;97022.22;;;4.68;56.71
75013;BME280;63567;49.956;20.130;2022-12-29T04:31:30;97015.38;;;4.67;56.47
75013;BME280;63567;49.956;20.130;2022-12-29T04:33:55;97025.94;;;4.65;56.56
75013;BME280;63567;49.956;20.130;2022-12-29T04:36:22;97024.31;;;4.64;56.60
75013;BME280;63567;49.956;20.130;2022-12-29T04:38:48;97016.50;;;4.64;56.65
75013;BME280;63567;49.956;20.130;2022-12-29T04:41:13;97014.03;;;4.63;56.87
75013;BME280;63567;49.956;20.130;2022-12-29T04:43:38;97004.41;;;4.63;56.55
75013;BME280;63567;49.956;20.130;2022-12-29T04:46:04;97013.03;;;4.64;56.46
75013;BME280;63567;49.956;20.130;2022-12-29T04:48:29;97013.03;;;4.64;56.46
75013;BME280;63567;49.956;20.130;2022-12-29T04:50:54;97001.94;;;4.62;56.93
75013;BME280;63567;49.956;20.130;2022-12-29T04:53:20;96992.63;;;4.59;56.78
75013;BME280;63567;49.956;20.130;2022-12-29T04:55:49;96982.50;;;4.56;57.16
75013;BME280;63567;49.956;20.130;2022-12-29T04:58:15;96987.59;;;4.58;57.20
75013;BME280;63567;49.956;20.130;2022-12-29T05:00:40;96984.66;;;4.61;57.03
75013;BME280;63567;49.956;20.130;2022-12-29T05:03:05;96977.66;;;4.61;57.17
75013;BME280;63567;49.956;20.130;2022-12-29T05:05:31;96975.84;;;4.62;56.97
75013;BME280;63567;49.956;20.130;2022-12-29T05:07:56;96972.94;;;4.65;56.55
75013;BME280;63567;49.956;20.130;2022-12-29T05:10:21;96971.81;;;4.67;57.20
75013;BME280;63567;49.956;20.130;2022-12-29T05:12:47;96983.91;;;4.68;57.09
75013;BME280;63567;49.956;20.130;2022-12-29T05:15:12;96989.94;;;4.69;56.96
75013;BME280;63567;49.956;20.130;2022-12-29T05:20:45;96978.69;;;4.68;57.22
75013;BME280;63567;49.956;20.130;2022-12-29T05:23:10;96971.34;;;4.72;56.72
75013;BME280;63567;49.956;20.130;2022-12-29T05:25:36;96967.28;;;4.69;57.31
75013;BME280;63567;49.956;20.130;2022-12-29T05:28:01;96973.31;;;4.70;57.32
75013;BME280;63567;49.956;20.130;2022-12-29T05:30:27;96968.91;;;4.70;57.09
75013;BME280;63567;49.956;20.130;2022-12-29T05:32:52;96972.03;;;4.74;57.36
75013;BME280;63567;49.956;20.130;2022-12-29T05:35:17;96969.56;;;4.72;57.33
75013;BME280;63567;49.956;20.130;2022-12-29T05:37:43;96963.03;;;4.68;57.84
75013;BME280;63567;49.956;20.130;2022-12-29T05:40:08;96958.91;;;4.66;57.65
75013;BME280;63567;49.956;20.130;2022-12-29T05:42:34;96962.53;;;4.65;57.49
75013;BME280;63567;49.956;20.130;2022-12-29T05:44:59;96962.06;;;4.69;57.64
75013;BME280;63567;49.956;20.130;2022-12-29T05:47:25;96955.03;;;4.70;57.79
75013;BME280;63567;49.956;20.130;2022-12-29T05:49:50;96951.16;;;4.74;56.84
75013;BME280;63567;49.956;20.130;2022-12-29T05:52:44;96952.81;;;4.75;57.20
75013;BME280;63567;49.956;20.130;2022-12-29T05:55:10;96941.53;;;4.74;57.20
75013;BME280;63567;49.956;20.130;2022-12-29T05:57:35;96951.63;;;4.69;57.67
75013;BME280;63567;49.956;20.130;2022-12-29T06:00:02;96949.47;;;4.65;57.66
75013;BME280;63567;49.956;20.130;2022-12-29T06:02:28;96952.88;;;4.65;57.49
75013;BME280;63567;49.956;20.130;2022-12-29T06:04:53;96947.81;;;4.64;57.82
75013;BME280;63567;49.956;20.130;2022-12-29T06:07:19;96952.88;;;4.65;57.91
75013;BME280;63567;49.956;20.130;2022-12-29T06:09:44;96956.50;;;4.64;57.58
75013;BME280;63567;49.956;20.130;2022-12-29T06:12:09;96956.31;;;4.66;57.46
75013;BME280;63567;49.956;20.130;2022-12-29T06:14:35;96949.47;;;4.65;57.71
75013;BME280;63567;49.956;20.130;2022-12-29T06:17:00;96958.25;;;4.64;57.71
75013;BME280;63567;49.956;20.130;2022-12-29T06:19:25;96955.66;;;4.64;57.82
75013;BME280;63567;49.956;20.130;2022-12-29T06:21:51;96960.38;;;4.60;58.01
75013;BME280;63567;49.956;20.130;2022-12-29T06:24:17;96965.88;;;4.57;58.14
75013;BME280;63567;49.956;20.130;2022-12-29T06:26:43;96958.22;;;4.56;58.29
75013;BME280;63567;49.956;20.130;2022-12-29T06:29:08;96971.25;;;4.56;58.35
75013;BME280;63567;49.956;20.130;2022-12-29T06:31:34;96964.53;;;4.53;58.46
75013;BME280;63567;49.956;20.130;2022-12-29T06:33:59;96975.63;;;4.55;58.20
75013;BME280;63567;49.956;20.130;2022-12-29T06:36:24;96978.91;;;4.57;58.20
75013;BME280;63567;49.956;20.130;2022-12-29T06:38:50;96968.47;;;4.57;58.44
75013;BME280;63567;49.956;20.130;2022-12-29T06:41:18;96970.41;;;4.55;58.65
75013;BME280;63567;49.956;20.130;2022-12-29T06:43:43;96966.19;;;4.54;58.06
75013;BME280;63567;49.956;20.130;2022-12-29T06:46:09;96957.38;;;4.55;58.74
75013;BME280;63567;49.956;20.130;2022-12-29T06:48:34;96959.69;;;4.58;59.08
75013;BME280;63567;49.956;20.130;2022-12-29T06:51:00;96958.25;;;4.64;58.27
75013;BME280;63567;49.956;20.130;2022-12-29T06:53:25;96972.50;;;4.69;58.17
75013;BME280;63567;49.956;20.130;2022-12-29T06:55:50;96960.47;;;4.77;57.88
75013;BME280;63567;49.956;20.130;2022-12-29T06:58:16;96952.34;;;4.80;58.04
75013;BME280;63567;49.956;20.130;2022-12-29T07:00:41;96955.28;;;4.85;58.31
75013;BME280;63567;49.956;20.130;2022-12-29T07:03:07;96955.97;;;4.87;58.21
75013;BME280;63567;49.956;20.130;2022-12-29T07:05:32;96964.47;;;4.89;57.86
75013;BME280;63567;49.956;20.130;2022-12-29T07:07:58;96940.66;;;4.92;58.11
75013;BME280;63567;49.956;20.130;2022-12-29T07:10:23;96935.13;;;4.95;57.78
75013;BME280;63567;49.956;20.130;2022-12-29T07:12:49;96941.03;;;4.97;57.76
75013;BME280;63567;49.956;20.130;2022-12-29T07:15:14;96932.88;;;5.00;57.86
75013;BME280;63567;49.956;20.130;2022-12-29T07:17:40;96936.81;;;5.04;57.63
75013;BME280;63567;49.956;20.130;2022-12-29T07:20:06;96941.88;;;5.06;57.44
75013;BME280;63567;49.956;20.130;2022-12-29T07:22:32;96943.50;;;5.07;57.58
75013;BME280;63567;49.956;20.130;2022-12-29T07:24:57;96942.53;;;5.08;57.69
75013;BME280;63567;49.956;20.130;2022-12-29T07:27:23;96935.38;;;5.10;57.73
75013;BME280;63567;49.956;20.130;2022-12-29T07:29:48;96936.19;;;5.10;57.65
75013;BME280;63567;49.956;20.130;2022-12-29T07:32:13;96941.09;;;5.13;57.61
75013;BME280;63567;49.956;20.130;2022-12-29T07:34:39;96938.47;;;5.13;57.57
75013;BME280;63567;49.956;20.130;2022-12-29T07:37:05;96935.72;;;5.15;57.39
75013;BME280;63567;49.956;20.130;2022-12-29T07:39:30;96935.38;;;5.18;57.86
75013;BME280;63567;49.956;20.130;2022-12-29T07:41:56;96928.22;;;5.20;57.49
75013;BME280;63567;49.956;20.130;2022-12-29T07:44:21;96937.75;;;5.29;57.39
75013;BME280;63567;49.956;20.130;2022-12-29T07:46:46;96937.41;;;5.32;57.55
75013;BME280;63567;49.956;20.130;2022-12-29T07:49:12;96946.06;;;5.33;57.56
75013;BME280;63567;49.956;20.130;2022-12-29T07:51:37;96945.59;;;5.38;57.91
75013;BME280;63567;49.956;20.130;2022-12-29T07:54:03;96942.81;;;5.39;57.97
75013;BME280;63567;49.956;20.130;2022-12-29T07:56:28;96949.03;;;5.46;57.94
75013;BME280;63567;49.956;20.130;2022-12-29T07:58:54;96946.63;;;5.53;57.93
75013;BME280;63567;49.956;20.130;2022-12-29T08:01:19;96952.50;;;5.55;57.79
75013;BME280;63567;49.956;20.130;2022-12-29T08:03:44;96951.06;;;5.61;58.07
75013;BME280;63567;49.956;20.130;2022-12-29T08:06:10;96938.31;;;5.66;58.07
75013;BME280;63567;49.956;20.130;2022-12-29T08:08:36;96935.72;;;5.66;58.11
75013;BME280;63567;49.956;20.130;2022-12-29T08:11:01;96938.50;;;5.72;58.27
75013;BME280;63567;49.956;20.130;2022-12-29T08:13:26;96926.09;;;5.74;58.62
75013;BME280;63567;49.956;20.130;2022-12-29T08:15:52;96924.97;;;5.77;58.60
75013;BME280;63567;49.956;20.130;2022-12-29T08:18:17;96923.84;;;5.80;58.56
75013;BME280;63567;49.956;20.130;2022-12-29T08:20:42;96934.78;;;5.83;58.06
75013;BME280;63567;49.956;20.130;2022-12-29T08:23:08;96918.13;;;5.84;58.03
75013;BME280;63567;49.956;20.130;2022-12-29T08:25:33;96932.38;;;5.90;58.04
75013;BME280;63567;49.956;20.130;2022-12-29T08:27:58;96931.53;;;5.89;58.19
75013;BME280;63567;49.956;20.130;2022-12-29T08:30:24;96935.31;;;5.95;58.14
75013;BME280;63567;49.956;20.130;2022-12-29T08:32:49;96928.31;;;6.04;58.26
75013;BME280;63567;49.956;20.130;2022-12-29T08:35:15;96932.41;;;6.14;57.54
75013;BME280;63567;49.956;20.130;2022-12-29T08:37:40;96927.34;;;6.29;57.00
75013;BME280;63567;49.956;20.130;2022-12-29T08:40:07;96932.09;;;6.42;56.78
75013;BME280;63567;49.956;20.130;2022-12-29T08:42:33;96932.88;;;6.59;56.50
75013;BME280;63567;49.956;20.130;2022-12-29T08:44:59;96937.09;;;6.76;55.97
75013;BME280;63567;49.956;20.130;2022-12-29T08:47:25;96941.16;;;6.87;55.75
75013;BME280;63567;49.956;20.130;2022-12-29T08:49:50;96951.13;;;7.00;55.30
75013;BME280;63567;49.956;20.130;2022-12-29T08:52:16;96932.25;;;7.13;54.28
75013;BME280;63567;49.956;20.130;2022-12-29T08:54:41;96944.66;;;7.27;54.56
75013;BME280;63567;49.956;20.130;2022-12-29T08:57:06;96937.06;;;7.40;54.17
75013;BME280;63567;49.956;20.130;2022-12-29T08:59:32;96937.88;;;7.41;53.69
75013;BME280;63567;49.956;20.130;2022-12-29T09:01:57;96938.69;;;7.41;54.47
75013;BME280;63567;49.956;20.130;2022-12-29T09:04:22;96929.81;;;7.51;53.88
75013;BME280;63567;49.956;20.130;2022-12-29T09:06:49;96940.41;;;7.66;54.10
75013;BME280;63567;49.956;20.130;2022-12-29T09:09:14;96941.63;;;7.78;53.19
75013;BME280;63567;49.956;20.130;2022-12-29T09:11:40;96936.06;;;7.81;52.92
75013;BME280;63567;49.956;20.130;2022-12-29T09:14:06;96929.78;;;7.90;52.44
75013;BME280;63567;49.956;20.130;2022-12-29T09:16:32;96931.00;;;8.02;52.62
75013;BME280;63567;49.956;20.130;2022-12-29T09:18:57;96931.88;;;8.18;51.96
75013;BME280;63567;49.956;20.130;2022-12-29T09:21:24;96921.84;;;8.45;51.59
75013;BME280;63567;49.956;20.130;2022-12-29T09:23:49;96925.09;;;8.70;51.13
75013;BME280;63567;49.956;20.130;2022-12-29T09:26:15;96924.03;;;9.09;49.46
75013;BME280;63567;49.956;20.130;2022-12-29T09:28:42;96915.25;;;9.68;48.66
75013;BME280;63567;49.956;20.130;2022-12-29T09:31:09;96920.84;;;10.01;47.50
75013;BME280;63567;49.956;20.130;2022-12-29T09:33:35;96910.19;;;10.52;46.76
75013;BME280;63567;49.956;20.130;2022-12-29T09:36:00;96909.81;;;10.83;44.70
75013;BME280;63567;49.956;20.130;2022-12-29T09:38:27;96903.53;;;11.19;44.12
75013;BME280;63567;49.956;20.130;2022-12-29T09:41:01;96901.22;;;11.51;42.71
75013;BME280;63567;49.956;20.130;2022-12-29T09:43:56;96912.59;;;12.06;42.46
75013;BME280;63567;49.956;20.130;2022-12-29T09:46:30;96912.41;;;12.21;40.88
75013;BME280;63567;49.956;20.130;2022-12-29T09:49:04;96906.72;;;12.24;41.91
75013;BME280;63567;49.956;20.130;2022-12-29T09:51:33;96901.03;;;12.74;40.75
75013;BME280;63567;49.956;20.130;2022-12-29T09:54:04;96914.06;;;12.62;39.82
75013;BME280;63567;49.956;20.130;2022-12-29T09:56:37;96897.97;;;12.10;41.14
75013;BME280;63567;49.956;20.130;2022-12-29T09:59:12;96888.50;;;11.68;41.65
75013;BME280;63567;49.956;20.130;2022-12-29T10:01:49;96902.38;;;10.94;43.79
75013;BME280;63567;49.956;20.130;2022-12-29T10:04:17;96895.59;;;10.28;45.72
75013;BME280;63567;49.956;20.130;2022-12-29T10:06:50;96904.59;;;9.97;46.80
75013;BME280;63567;49.956;20.130;2022-12-29T10:09:34;96908.06;;;9.76;47.42
75013;BME280;63567;49.956;20.130;2022-12-29T10:14:58;96901.66;;;9.85;47.07
75013;BME280;63567;49.956;20.130;2022-12-29T10:25:40;96886.28;;;10.54;45.76
75013;BME280;63567;49.956;20.130;2022-12-29T10:28:17;96875.00;;;10.95;44.96
75013;BME280;63567;49.956;20.130;2022-12-29T10:30:47;96890.06;;;11.49;43.12
75013;BME280;63567;49.956;20.130;2022-12-29T10:33:18;96890.97;;;11.83;43.15
75013;BME280;63567;49.956;20.130;2022-12-29T10:35:46;96886.19;;;12.00;42.98
75013;BME280;63567;49.956;20.130;2022-12-29T10:38:28;96880.91;;;12.06;41.53
75013;BME280;63567;49.956;20.130;2022-12-29T10:43:45;96875.84;;;12.51;41.05
75013;BME280;63567;49.956;20.130;2022-12-29T10:46:14;96881.69;;;12.93;40.02
75013;BME280;63567;49.956;20.130;2022-12-29T10:48:41;96876.44;;;13.52;39.06
75013;BME280;63567;49.956;20.130;2022-12-29T10:51:10;96876.00;;;13.93;37.71
75013;BME280;63567;49.956;20.130;2022-12-29T10:53:49;96878.66;;;14.75;36.77
75013;BME280;63567;49.956;20.130;2022-12-29T10:56:25;96875.22;;;15.30;35.21
75013;BME280;63567;49.956;20.130;2022-12-29T10:58:54;96866.09;;;15.26;35.12
75013;BME280;63567;49.956;20.130;2022-12-29T11:01:21;96872.25;;;15.57;34.54
75013;BME280;63567;49.956;20.130;2022-12-29T11:06:26;96877.72;;;16.22;33.63
75013;BME280;63567;49.956;20.130;2022-12-29T11:08:56;96865.53;;;15.73;34.00
75013;BME280;63567;49.956;20.130;2022-12-29T11:11:25;96871.00;;;15.59;34.33
75013;BME280;63567;49.956;20.130;2022-12-29T11:14:18;96867.53;;;16.19;33.33
75013;BME280;63567;49.956;20.130;2022-12-29T11:16:43;96867.22;;;15.67;33.57
75013;BME280;63567;49.956;20.130;2022-12-29T11:19:25;96857.03;;;14.97;35.11
75013;BME280;63567;49.956;20.130;2022-12-29T11:21:51;96871.97;;;14.16;36.10
75013;BME280;63567;49.956;20.130;2022-12-29T12:25:20;96848.66;;;11.01;46.43
75013;BME280;63567;49.956;20.130;2022-12-29T12:28:20;96832.25;;;10.99;45.76
75013;BME280;63567;49.956;20.130;2022-12-29T12:30:51;96833.44;;;10.97;45.49
75013;BME280;63567;49.956;20.130;2022-12-29T12:33:26;96835.06;;;10.91;46.51
75013;BME280;63567;49.956;20.130;2022-12-29T12:44:00;96820.63;;;10.80;45.83
75013;BME280;63567;49.956;20.130;2022-12-29T12:49:50;96809.16;;;10.66;46.05
75013;BME280;63567;49.956;20.130;2022-12-29T12:55:25;96819.03;;;10.58;46.72
75013;BME280;63567;49.956;20.130;2022-12-29T12:58:22;96815.78;;;10.56;46.75
75013;BME280;63567;49.956;20.130;2022-12-29T13:17:08;96839.00;;;10.17;47.42
75013;BME280;63567;49.956;20.130;2022-12-29T13:27:47;96846.84;;;10.11;48.29
75013;BME280;63567;49.956;20.130;2022-12-29T13:30:18;96858.59;;;10.15;48.28
75013;BME280;63567;49.956;20.130;2022-12-29T13:32:56;96866.94;;;10.18;48.30
75013;BME280;63567;49.956;20.130;2022-12-29T13:55:37;96884.56;;;9.75;49.83
75013;BME280;63567;49.956;20.130;2022-12-29T13:58:20;96890.84;;;9.74;49.76
75013;BME280;63567;49.956;20.130;2022-12-29T14:01:08;96883.94;;;9.73;50.31
75013;BME280;63567;49.956;20.130;2022-12-29T14:03:59;96894.00;;;9.69;49.67
75013;BME280;63567;49.956;20.130;2022-12-29T14:06:25;96879.63;;;9.65;50.14
75013;BME280;63567;49.956;20.130;2022-12-29T14:09:50;96886.78;;;9.56;50.04
75013;BME280;63567;49.956;20.130;2022-12-29T14:14:45;96888.63;;;9.41;49.58
75013;BME280;63567;49.956;20.130;2022-12-29T14:17:11;96879.84;;;9.34;49.52
75013;BME280;63567;49.956;20.130;2022-12-29T14:19:40;96872.69;;;9.28;49.29
75013;BME280;63567;49.956;20.130;2022-12-29T14:22:08;96873.63;;;9.20;49.89
75013;BME280;63567;49.956;20.130;2022-12-29T14:34:47;96884.59;;;8.79;50.87
75013;BME280;63567;49.956;20.130;2022-12-29T14:37:33;96893.19;;;8.73;51.71
75013;BME280;63567;49.956;20.130;2022-12-29T14:40:23;96894.06;;;8.65;51.52
75013;BME280;63567;49.956;20.130;2022-12-29T14:42:51;96883.69;;;8.57;51.51
75013;BME280;63567;49.956;20.130;2022-12-29T14:47:53;96886.28;;;8.42;52.32
75013;BME280;63567;49.956;20.130;2022-12-29T14:50:23;96892.38;;;8.34;53.10
75013;BME280;63567;49.956;20.130;2022-12-29T14:52:52;96887.00;;;8.28;53.26
75013;BME280;63567;49.956;20.130;2022-12-29T14:58:05;96901.91;;;8.12;53.43
75013;BME280;63567;49.956;20.130;2022-12-29T15:00:34;96900.44;;;8.10;53.50
75013;BME280;63567;49.956;20.130;2022-12-29T15:05:36;96893.34;;;7.95;53.79
75013;BME280;63567;49.956;20.130;2022-12-29T15:08:03;96899.91;;;7.91;53.44
75013;BME280;63567;49.956;20.130;2022-12-29T15:10:45;96901.78;;;7.82;54.23
75013;BME280;63567;49.956;20.130;2022-12-29T15:13:37;96905.72;;;7.78;54.65
75013;BME280;63567;49.956;20.130;2022-12-29T15:16:04;96897.41;;;7.75;54.25
75013;BME280;63567;49.956;20.130;2022-12-29T15:18:31;96898.09;;;7.69;54.49
75013;BME280;63567;49.956;20.130;2022-12-29T15:21:02;96906.13;;;7.67;54.73
75013;BME280;63567;49.956;20.130;2022-12-29T15:23:31;96901.53;;;7.69;54.45
75013;BME280;63567;49.956;20.130;2022-12-29T15:26:07;96900.09;;;7.67;54.40
75013;BME280;63567;49.956;20.130;2022-12-29T15:28:52;96901.38;;;7.71;54.52
75013;BME280;63567;49.956;20.130;2022-12-29T15:31:22;96903.34;;;7.69;54.45
75013;BME280;63567;49.956;20.130;2022-12-29T15:33:53;96901.91;;;7.66;54.52
75013;BME280;63567;49.956;20.130;2022-12-29T15:36:27;96903.72;;;7.66;54.43
75013;BME280;63567;49.956;20.130;2022-12-29T15:38:53;96902.41;;;7.61;54.59
75013;BME280;63567;49.956;20.130;2022-12-29T15:44:13;96905.03;;;7.61;54.85
75013;BME280;63567;49.956;20.130;2022-12-29T15:46:42;96899.31;;;7.58;54.57
75013;BME280;63567;49.956;20.130;2022-12-29T15:49:08;96902.28;;;7.55;54.26
75013;BME280;63567;49.956;20.130;2022-12-29T15:51:38;96891.97;;;7.53;54.43
75013;BME280;63567;49.956;20.130;2022-12-29T15:54:05;96900.34;;;7.49;55.34
75013;BME280;63567;49.956;20.130;2022-12-29T15:56:32;96898.41;;;7.43;54.85
75013;BME280;63567;49.956;20.130;2022-12-29T15:58:58;96898.78;;;7.39;55.42
75013;BME280;63567;49.956;20.130;2022-12-29T16:01:29;96900.75;;;7.37;55.43
75013;BME280;63567;49.956;20.130;2022-12-29T16:03:58;96894.00;;;7.35;54.88
75013;BME280;63567;49.956;20.130;2022-12-29T16:06:31;96897.16;;;7.30;55.56
75013;BME280;63567;49.956;20.130;2022-12-29T16:11:34;96903.41;;;7.21;55.87
75013;BME280;63567;49.956;20.130;2022-12-29T16:14:02;96899.50;;;7.17;56.01
75013;BME280;63567;49.956;20.130;2022-12-29T16:16:35;96902.47;;;7.14;56.33
75013;BME280;63567;49.956;20.130;2022-12-29T16:19:12;96901.81;;;7.12;56.59